createdAt,value
2018-11-21T00:01:19.347Z,63.90
2018-11-21T00:03:59.315Z,59.20
2018-11-21T00:06:39.230Z,60.77
2018-11-21T00:09:19.055Z,66.20
2018-11-21T00:11:58.795Z,64.60
2018-11-21T00:14:38.386Z,55.43
2018-11-21T00:17:18.223Z,67.70
2018-11-21T00:19:58.128Z,59.43
2018-11-21T00:22:37.958Z,59.60
2018-11-21T00:25:17.707Z,59.73
2018-11-21T00:27:57.806Z,62.30
2018-11-21T00:30:37.352Z,68.63
2018-11-21T00:33:17.255Z,63.67
2018-11-21T00:35:57.088Z,61.67
2018-11-21T00:38:36.791Z,66.07
2018-11-21T00:41:16.495Z,57.60
2018-11-21T00:43:56.228Z,64.63
2018-11-21T00:46:35.898Z,66.27
2018-11-21T00:49:15.383Z,61.13
2018-11-21T00:51:55.078Z,63.20
2018-11-21T00:54:34.922Z,68.87
2018-11-21T00:57:14.533Z,67.03
2018-11-21T00:59:54.409Z,66.77
2018-11-21T01:02:34.487Z,68.63
2018-11-21T01:05:14.213Z,54.90
2018-11-21T01:07:53.827Z,64.93
2018-11-21T01:10:33.699Z,73.30
2018-11-21T01:13:13.346Z,68.23
2018-11-21T01:15:53.049Z,74.03
2018-11-21T01:18:33.101Z,79.03
2018-11-21T01:21:13.070Z,73.70
2018-11-21T01:23:52.677Z,71.07
2018-11-21T01:26:32.777Z,74.10
2018-11-21T01:29:12.403Z,79.00
2018-11-21T01:31:52.199Z,72.10
2018-11-21T01:34:32.097Z,78.53
2018-11-21T01:37:11.766Z,83.10
2018-11-21T01:39:51.719Z,82.63
2018-11-21T01:42:29.384Z,82.23
2018-11-21T01:45:15.993Z,80.00
2018-11-21T01:47:56.192Z,79.30
2018-11-21T01:50:35.602Z,83.93
2018-11-21T01:53:15.388Z,85.87
2018-11-21T01:55:55.318Z,78.53
2018-11-21T01:58:35.370Z,79.13
2018-11-21T02:01:15.565Z,80.87
2018-11-21T02:03:55.627Z,83.97
2018-11-21T02:06:35.636Z,76.93
2018-11-21T02:09:15.449Z,80.80
2018-11-21T02:11:55.120Z,88.87
2018-11-21T02:14:35.135Z,79.00
2018-11-21T02:17:14.842Z,86.03
2018-11-21T02:19:54.874Z,87.50
2018-11-21T02:22:34.687Z,77.57
2018-11-21T02:25:14.526Z,78.87
2018-11-21T02:27:54.192Z,72.33
2018-11-21T02:30:34.103Z,78.33
2018-11-21T02:33:13.986Z,78.30
2018-11-21T02:35:53.949Z,73.57
2018-11-21T02:38:34.099Z,76.47
2018-11-21T02:41:13.415Z,66.17
2018-11-21T02:43:53.248Z,70.83
2018-11-21T02:46:33.261Z,67.40
2018-11-21T02:49:12.736Z,71.37
2018-11-21T02:51:52.386Z,71.03
2018-11-21T02:54:32.186Z,67.80
2018-11-21T02:57:12.298Z,72.57
2018-11-21T02:59:52.120Z,69.17
2018-11-21T03:02:31.764Z,74.23
2018-11-21T03:05:11.509Z,72.97
2018-11-21T03:07:53.227Z,69.60
2018-11-21T03:10:33.407Z,64.07
2018-11-21T03:13:13.174Z,71.70
2018-11-21T03:15:53.105Z,69.67
2018-11-21T03:18:32.630Z,65.70
2018-11-21T03:21:12.159Z,69.20
2018-11-21T03:23:51.871Z,72.70
2018-11-21T03:26:31.582Z,67.93
2018-11-21T03:29:11.608Z,72.67
2018-11-21T03:31:51.185Z,66.73
2018-11-21T03:34:30.896Z,67.90
2018-11-21T03:37:10.648Z,71.03
2018-11-21T03:39:50.407Z,65.50
2018-11-21T03:42:30.085Z,78.07
2018-11-21T03:45:10.710Z,70.10
2018-11-21T03:47:50.798Z,69.00
2018-11-21T03:50:30.414Z,72.00
2018-11-21T03:53:10.276Z,71.03
2018-11-21T03:55:50.071Z,68.53
2018-11-21T03:58:29.734Z,72.67
2018-11-21T04:01:09.583Z,70.43
2018-11-21T04:03:49.551Z,72.07
2018-11-21T04:06:29.265Z,82.00
2018-11-21T04:09:09.798Z,79.57
2018-11-21T04:11:49.777Z,75.90
2018-11-21T04:14:29.278Z,78.83
2018-11-21T04:17:08.874Z,76.57
2018-11-21T04:19:48.439Z,80.93
2018-11-21T04:22:27.976Z,88.80
2018-11-21T04:25:08.955Z,79.50
2018-11-21T04:27:48.311Z,82.73
2018-11-21T04:30:15.463Z,77.27
2018-11-21T04:33:02.029Z,79.93
2018-11-21T04:35:41.380Z,79.60
2018-11-21T04:38:21.370Z,77.33
2018-11-21T04:41:01.016Z,84.33
2018-11-21T04:43:40.747Z,81.33
2018-11-21T04:46:20.600Z,83.07
2018-11-21T04:49:00.151Z,88.33
2018-11-21T04:51:39.990Z,82.13
2018-11-21T04:54:19.869Z,78.37
2018-11-21T04:56:59.664Z,83.47
2018-11-21T04:59:39.634Z,85.33
2018-11-21T05:02:19.196Z,75.07
2018-11-21T05:04:59.056Z,84.43
2018-11-21T05:07:39.032Z,90.67
2018-11-21T05:10:18.895Z,83.93
2018-11-21T05:12:58.956Z,78.03
2018-11-21T05:15:26.012Z,79.17
2018-11-21T05:18:12.636Z,77.97
2018-11-21T05:20:52.616Z,85.03
2018-11-21T05:23:32.800Z,71.30
2018-11-21T05:26:12.287Z,76.13
2018-11-21T05:28:52.355Z,83.97
2018-11-21T05:31:32.251Z,83.23
2018-11-21T05:34:12.348Z,81.37
2018-11-21T05:36:52.225Z,78.67
2018-11-21T05:39:31.981Z,81.63
2018-11-21T05:42:12.011Z,85.60
2018-11-21T05:44:51.593Z,83.07
2018-11-21T05:47:31.363Z,75.20
2018-11-21T05:50:12.057Z,75.67
2018-11-21T05:52:51.929Z,76.43
2018-11-21T05:55:31.885Z,84.07
2018-11-21T05:58:11.812Z,87.43
2018-11-21T06:00:49.507Z,81.33
2018-11-21T06:03:36.041Z,75.87
2018-11-21T06:06:16.170Z,80.67
2018-11-21T06:08:55.634Z,88.53
2018-11-21T06:11:35.159Z,82.10
2018-11-21T06:14:14.716Z,73.40
2018-11-21T06:16:54.680Z,85.23
2018-11-21T06:19:34.700Z,74.73
2018-11-21T06:22:14.387Z,81.10
2018-11-21T06:24:54.059Z,79.60
2018-11-21T06:27:34.196Z,76.43
2018-11-21T06:30:14.498Z,80.03
2018-11-21T06:32:54.200Z,70.00
2018-11-21T06:35:34.144Z,79.97
2018-11-21T06:38:14.097Z,73.60
2018-11-21T06:40:53.980Z,68.87
2018-11-21T06:43:34.205Z,79.97
2018-11-21T06:46:14.106Z,73.43
2018-11-21T06:48:53.899Z,85.33
2018-11-21T06:51:35.247Z,86.90
2018-11-21T06:54:13.678Z,73.90
2018-11-21T06:56:53.839Z,80.77
2018-11-21T06:59:33.738Z,63.20
2018-11-21T07:02:13.656Z,82.37
2018-11-21T07:04:53.247Z,73.63
2018-11-21T07:07:33.264Z,76.67
2018-11-21T07:10:14.344Z,71.70
2018-11-21T07:12:54.403Z,70.37
2018-11-21T07:15:34.298Z,67.40
2018-11-21T07:18:15.560Z,72.17
2018-11-21T07:20:53.980Z,80.70
2018-11-21T07:23:33.903Z,77.20
2018-11-21T07:26:13.544Z,73.23
2018-11-21T07:28:53.371Z,72.10
2018-11-21T07:31:33.415Z,74.70
2018-11-21T07:34:12.890Z,71.70
2018-11-21T07:36:52.813Z,74.57
2018-11-21T07:39:32.741Z,71.47
2018-11-21T07:42:12.415Z,71.93
2018-11-21T07:44:52.527Z,81.50
2018-11-21T07:47:32.419Z,73.37
2018-11-21T07:50:13.953Z,72.77
2018-11-21T07:52:53.853Z,72.97
2018-11-21T07:55:33.619Z,66.30
2018-11-21T07:58:15.710Z,72.00
2018-11-21T08:01:15.164Z,70.93
2018-11-21T08:04:04.040Z,66.30
2018-11-21T08:07:03.403Z,72.10
2018-11-21T08:10:01.952Z,67.87
2018-11-21T08:13:01.056Z,77.50
2018-11-21T08:15:57.315Z,69.97
2018-11-21T08:18:56.909Z,69.00
2018-11-21T08:21:56.063Z,68.70
2018-11-21T08:24:58.152Z,65.70
2018-11-21T08:27:43.119Z,70.77
2018-11-21T08:30:10.137Z,61.70
2018-11-21T08:32:37.032Z,68.00
2018-11-21T08:35:04.054Z,68.10
2018-11-21T08:37:30.997Z,62.83
2018-11-21T08:39:57.979Z,65.43
2018-11-21T08:42:24.921Z,68.17
2018-11-21T08:44:51.836Z,63.17
2018-11-21T08:47:19.131Z,66.03
2018-11-21T08:49:46.156Z,65.20
2018-11-21T08:52:13.082Z,63.67
2018-11-21T08:54:40.362Z,71.67
2018-11-21T08:57:07.303Z,63.57
2018-11-21T08:59:34.475Z,58.67
2018-11-21T09:02:01.419Z,64.70
2018-11-21T09:04:28.406Z,62.43
2018-11-21T09:06:55.345Z,63.37
2018-11-21T09:09:22.295Z,56.30
2018-11-21T09:11:49.576Z,55.20
2018-11-21T09:14:16.616Z,65.00
2018-11-21T09:16:43.555Z,65.47
2018-11-21T09:19:10.438Z,55.13
2018-11-21T09:21:37.546Z,58.30
2018-11-21T09:24:04.523Z,64.40
2018-11-21T09:26:31.547Z,55.83
2018-11-21T09:28:58.539Z,51.33
2018-11-21T09:31:25.510Z,58.47
2018-11-21T09:33:52.402Z,52.43
2018-11-21T09:36:19.362Z,59.17
2018-11-21T09:38:46.321Z,54.27
2018-11-21T09:41:13.359Z,58.63
2018-11-21T09:43:40.239Z,56.27
2018-11-21T09:46:07.170Z,53.40
2018-11-21T09:48:34.186Z,59.87
2018-11-21T09:51:01.109Z,53.23
2018-11-21T09:53:28.071Z,48.13
2018-11-21T09:55:55.094Z,52.50
2018-11-21T09:58:22.050Z,52.13
2018-11-21T10:01:25.477Z,54.07
2018-11-21T10:03:52.408Z,39.00
2018-11-21T10:06:21.434Z,52.67
2018-11-21T10:08:56.025Z,47.90
2018-11-21T10:11:23.311Z,54.37
2018-11-21T10:13:50.305Z,49.03
2018-11-21T10:16:17.399Z,48.70
2018-11-21T10:18:45.889Z,54.60
2018-11-21T10:21:17.793Z,54.17
2018-11-21T10:23:45.224Z,53.17
2018-11-21T10:26:11.835Z,51.70
2018-11-21T10:28:38.867Z,48.57
2018-11-21T10:31:05.799Z,52.43
2018-11-21T10:33:32.849Z,51.00
2018-11-21T10:35:59.860Z,50.20
2018-11-21T10:38:26.862Z,50.00
2018-11-21T10:40:53.776Z,47.93
2018-11-21T10:43:20.766Z,47.87
2018-11-21T10:45:47.704Z,48.00
2018-11-21T10:48:14.757Z,51.70
2018-11-21T10:50:41.791Z,52.77
2018-11-21T10:53:08.768Z,48.67
2018-11-21T10:55:35.713Z,50.87
2018-11-21T10:58:02.703Z,49.03
2018-11-21T11:00:48.027Z,53.77
2018-11-21T11:03:26.077Z,54.57
2018-11-21T11:06:17.992Z,51.97
2018-11-21T11:09:03.157Z,53.90
2018-11-21T11:12:07.738Z,53.17
2018-11-21T11:14:57.014Z,51.07
2018-11-21T11:17:59.470Z,54.53
2018-11-21T11:20:40.218Z,55.00
2018-11-21T11:23:18.214Z,53.23
2018-11-21T11:26:03.239Z,48.70
2018-11-21T11:28:49.781Z,51.27
2018-11-21T11:31:36.368Z,51.70
2018-11-21T11:34:26.014Z,48.60
2018-11-21T11:37:11.001Z,51.03
2018-11-21T11:39:55.755Z,60.90
2018-11-21T11:42:51.394Z,48.63
2018-11-21T11:45:40.560Z,49.27
2018-11-21T11:48:25.816Z,49.33
2018-11-21T11:51:24.389Z,49.47
2018-11-21T11:54:16.355Z,48.87
2018-11-21T11:56:51.901Z,48.57
2018-11-21T11:59:37.156Z,47.17
2018-11-21T12:02:22.507Z,48.57
2018-11-21T12:05:09.100Z,48.67
2018-11-21T12:08:07.612Z,46.17
2018-11-21T12:11:03.922Z,50.43
2018-11-21T12:13:49.143Z,43.43
2018-11-21T12:16:50.631Z,46.93
2018-11-21T12:19:32.721Z,44.63
2018-11-21T12:22:12.599Z,43.27
2018-11-21T12:25:01.965Z,47.37
2018-11-21T12:27:47.160Z,50.17
2018-11-21T12:30:36.871Z,48.63
2018-11-21T12:33:22.155Z,50.00
2018-11-21T12:36:23.706Z,51.83
2018-11-21T12:39:04.832Z,49.37
2018-11-21T12:41:51.387Z,46.53
2018-11-21T12:44:45.044Z,45.23
2018-11-21T12:47:26.702Z,57.30
2018-11-21T12:50:08.377Z,49.83
2018-11-21T12:52:49.985Z,54.33
2018-11-21T12:55:27.661Z,50.23
2018-11-21T12:58:22.788Z,51.60
2018-11-21T13:01:21.278Z,42.63
2018-11-21T13:04:14.127Z,49.70
2018-11-21T13:07:00.756Z,49.73
2018-11-21T13:09:45.723Z,49.90
2018-11-21T13:12:27.684Z,42.87
2018-11-21T13:15:12.846Z,46.87
2018-11-21T13:17:58.045Z,48.67
2018-11-21T13:20:40.582Z,45.83
2018-11-21T13:23:25.789Z,53.40
2018-11-21T13:26:17.885Z,51.93
2018-11-21T13:28:57.913Z,50.97
2018-11-21T13:31:35.042Z,54.90
2018-11-21T13:34:33.841Z,54.57
2018-11-21T13:37:25.995Z,47.77
2018-11-21T13:40:19.130Z,57.70
2018-11-21T13:43:02.663Z,51.87
2018-11-21T13:46:04.207Z,61.63
2018-11-21T13:48:50.097Z,57.47
2018-11-21T13:51:34.360Z,51.03
2018-11-21T13:54:17.096Z,58.53
2018-11-21T13:56:44.438Z,53.17
2018-11-21T13:59:11.542Z,50.00
2018-11-21T14:01:38.553Z,52.60
2018-11-21T14:04:05.435Z,56.17
2018-11-21T14:06:32.440Z,51.13
2018-11-21T14:08:59.346Z,45.70
2018-11-21T14:11:26.357Z,53.03
2018-11-21T14:13:53.271Z,45.70
2018-11-21T14:16:20.206Z,49.10
2018-11-21T14:18:47.170Z,53.20
2018-11-21T14:21:14.139Z,49.10
2018-11-21T14:23:41.099Z,50.47
2018-11-21T14:26:08.118Z,58.13
2018-11-21T14:28:35.047Z,53.93
2018-11-21T14:31:02.463Z,49.27
2018-11-21T14:33:29.404Z,57.73
2018-11-21T14:35:56.431Z,55.80
2018-11-21T14:38:23.516Z,65.03
2018-11-21T14:40:50.782Z,54.67
2018-11-21T14:43:17.911Z,63.17
2018-11-21T14:45:44.790Z,62.57
2018-11-21T14:48:11.688Z,59.03
2018-11-21T14:50:39.414Z,63.70
2018-11-21T14:53:06.140Z,55.13
2018-11-21T14:55:33.114Z,56.83
2018-11-21T14:58:00.465Z,61.63
2018-11-21T15:00:27.779Z,54.43
2018-11-21T15:02:54.708Z,62.10
2018-11-21T15:05:21.905Z,65.00
2018-11-21T15:07:48.793Z,67.97
2018-11-21T15:10:15.795Z,67.90
2018-11-21T15:12:43.047Z,68.97
2018-11-21T15:15:12.599Z,61.43
2018-11-21T15:17:39.547Z,66.80
2018-11-21T15:20:08.398Z,64.33
2018-11-21T15:22:35.890Z,67.23
2018-11-21T15:25:02.389Z,68.33
2018-11-21T15:27:29.303Z,69.57
2018-11-21T15:30:00.034Z,74.87
2018-11-21T15:32:23.233Z,74.27
2018-11-21T15:34:50.211Z,76.07
2018-11-21T15:37:17.142Z,76.73
2018-11-21T15:39:44.152Z,72.93
2018-11-21T15:42:11.068Z,82.70
2018-11-21T15:44:37.970Z,79.63
2018-11-21T15:47:05.129Z,69.17
2018-11-21T15:49:32.041Z,76.97
2018-11-21T15:52:01.469Z,85.33
2018-11-21T15:54:25.939Z,86.60
2018-11-21T15:56:52.875Z,89.73
2018-11-21T15:59:19.814Z,82.00
2018-11-21T16:01:47.037Z,87.80
2018-11-21T16:04:13.960Z,86.13
2018-11-21T16:06:40.893Z,86.60
2018-11-21T16:09:08.528Z,80.10
2018-11-21T16:11:35.526Z,85.53
2018-11-21T16:14:02.404Z,82.20
2018-11-21T16:16:29.354Z,83.33
2018-11-21T16:18:56.305Z,94.90
2018-11-21T16:21:23.269Z,83.73
2018-11-21T16:23:50.206Z,82.20
2018-11-21T16:26:17.150Z,88.60
2018-11-21T16:28:44.351Z,87.50
2018-11-21T16:31:11.244Z,90.40
2018-11-21T16:33:38.227Z,81.83
2018-11-21T16:36:05.204Z,89.07
2018-11-21T16:38:32.098Z,83.47
2018-11-21T16:40:59.020Z,92.40
2018-11-21T16:43:25.974Z,74.97
2018-11-21T16:45:54.787Z,83.47
2018-11-21T16:48:21.707Z,91.77
2018-11-21T16:50:48.618Z,84.03
2018-11-21T16:53:15.572Z,80.27
2018-11-21T16:55:42.474Z,87.37
2018-11-21T16:58:09.396Z,82.50
2018-11-21T17:00:36.354Z,78.43
2018-11-21T17:03:03.553Z,89.63
2018-11-21T17:05:30.614Z,87.60
2018-11-21T17:07:57.583Z,76.10
2018-11-21T17:10:26.024Z,81.60
2018-11-21T17:12:53.114Z,77.17
2018-11-21T17:15:21.433Z,78.30
2018-11-21T17:17:48.618Z,80.17
2018-11-21T17:20:20.244Z,86.43
2018-11-21T17:22:48.343Z,90.10
2018-11-21T17:25:19.604Z,81.83
2018-11-21T17:27:46.890Z,82.73
2018-11-21T17:30:14.871Z,79.57
2018-11-21T17:32:41.824Z,85.40
2018-11-21T17:35:09.924Z,80.53
2018-11-21T17:37:37.070Z,81.10
2018-11-21T17:40:14.182Z,84.73
2018-11-21T17:42:41.129Z,82.63
2018-11-21T17:45:08.690Z,84.37
2018-11-21T17:47:35.713Z,83.63
2018-11-21T17:50:02.822Z,78.43
2018-11-21T17:52:43.013Z,79.97
2018-11-21T17:55:26.931Z,85.70
2018-11-21T17:58:06.953Z,84.13
2018-11-21T18:00:46.756Z,87.13
2018-11-21T18:03:26.480Z,85.47
2018-11-21T18:06:06.379Z,86.37
2018-11-21T18:08:45.790Z,85.13
2018-11-21T18:11:25.220Z,81.83
2018-11-21T18:14:04.839Z,85.33
2018-11-21T18:16:44.480Z,81.13
2018-11-21T18:19:24.321Z,90.63
2018-11-21T18:22:04.025Z,80.97
2018-11-21T18:24:43.731Z,94.97
2018-11-21T18:27:23.485Z,81.83
2018-11-21T18:30:03.343Z,87.70
2018-11-21T18:32:43.644Z,93.67
2018-11-21T18:35:23.620Z,80.90
2018-11-21T18:38:03.778Z,79.97
2018-11-21T18:40:43.654Z,87.43
2018-11-21T18:43:23.638Z,85.53
2018-11-21T18:46:03.471Z,81.97
2018-11-21T18:48:43.058Z,85.50
2018-11-21T18:51:22.989Z,85.03
2018-11-21T18:54:02.997Z,92.77
2018-11-21T18:56:45.487Z,94.23
2018-11-21T18:59:22.594Z,86.77
2018-11-21T19:02:02.091Z,86.27
2018-11-21T19:04:41.724Z,89.03
2018-11-21T19:07:21.615Z,90.60
2018-11-21T19:10:01.316Z,92.37
2018-11-21T19:15:38.936Z,87.53
2018-11-21T19:18:18.890Z,84.40
2018-11-21T19:20:58.862Z,93.37
2018-11-21T19:23:38.130Z,90.30
2018-11-21T19:26:18.029Z,95.33
2018-11-21T19:28:57.979Z,88.03
2018-11-21T19:31:37.664Z,91.40
2018-11-21T19:34:17.256Z,82.27
2018-11-21T19:36:56.976Z,89.17
2018-11-21T19:39:36.834Z,81.03
2018-11-21T19:42:20.159Z,83.70
2018-11-21T19:44:56.589Z,81.97
2018-11-21T19:47:36.346Z,80.83
2018-11-21T19:50:17.078Z,75.77
2018-11-21T19:52:56.978Z,88.50
2018-11-21T19:55:37.188Z,73.80
2018-11-21T19:58:17.395Z,75.93
2018-11-21T20:00:57.279Z,82.53
2018-11-21T20:03:37.340Z,85.20
2018-11-21T20:06:17.080Z,77.73
2018-11-21T20:08:56.962Z,70.80
2018-11-21T20:11:36.506Z,74.33
2018-11-21T20:14:16.109Z,82.20
2018-11-21T20:16:55.855Z,76.70
2018-11-21T20:19:35.400Z,78.57
2018-11-21T20:22:14.923Z,80.23
2018-11-21T20:24:54.689Z,76.53
2018-11-21T20:27:34.400Z,84.37
2018-11-21T20:30:15.567Z,79.90
2018-11-21T20:32:55.011Z,82.73
2018-11-21T20:35:35.090Z,80.40
2018-11-21T20:38:14.495Z,84.57
2018-11-21T20:40:54.240Z,81.00
2018-11-21T20:43:33.991Z,81.60
2018-11-21T20:46:13.667Z,88.13
2018-11-21T20:48:53.520Z,81.33
2018-11-21T20:51:32.993Z,76.47
2018-11-21T20:54:12.907Z,81.00
2018-11-21T20:56:52.810Z,81.70
2018-11-21T20:59:32.375Z,86.57
2018-11-21T21:02:12.248Z,71.33
2018-11-21T21:04:52.082Z,77.77
2018-11-21T21:07:31.661Z,81.13
2018-11-21T21:10:12.880Z,82.13
2018-11-21T21:15:38.473Z,79.93
2018-11-21T21:18:18.299Z,85.30
2018-11-21T21:20:58.064Z,88.63
2018-11-21T21:23:37.767Z,80.23
2018-11-21T21:26:17.732Z,80.70
2018-11-21T21:28:57.195Z,88.90
2018-11-21T21:31:37.011Z,79.43
2018-11-21T21:34:16.859Z,86.33
2018-11-21T21:36:56.746Z,75.87
2018-11-21T21:39:36.346Z,78.70
2018-11-21T21:42:16.169Z,81.43
2018-11-21T21:44:55.964Z,78.27
2018-11-21T21:47:36.144Z,79.53
2018-11-21T21:50:16.863Z,81.87
